sensor_id;sensor_type;location;lat;lon;timestamp;P1;durP1;ratioP1;P2;durP2;ratioP2
2522;SDS011;1272;53.332;9.860;2023-03-01T00:01:47;3.93;;;3.23;;
2522;SDS011;1272;53.332;9.860;2023-03-01T00:04:12;4.30;;;3.20;;
2522;SDS011;1272;53.332;9.860;2023-03-01T00:06:38;3.23;;;2.87;;
2522;SDS011;1272;53.332;9.860;2023-03-01T00:09:04;3.60;;;2.80;;
2522;SDS011;1272;53.332;9.860;2023-03-01T00:11:30;4.50;;;3.23;;
2522;SDS011;1272;53.332;9.860;2023-03-01T00:13:58;2.83;;;2.63;;
2522;SDS011;1272;53.332;9.860;2023-03-01T00:19:48;2.83;;;2.63;;
2522;SDS011;1272;53.332;9.860;2023-03-01T00:22:13;3.60;;;3.20;;
2522;SDS011;1272;53.332;9.860;2023-03-01T00:24:39;3.07;;;2.83;;
2522;SDS011;1272;53.332;9.860;2023-03-01T00:27:05;2.63;;;2.10;;
2522;SDS011;1272;53.332;9.860;2023-03-01T00:29:31;5.53;;;2.77;;
2522;SDS011;1272;53.332;9.860;2023-03-01T00:31:56;6.63;;;3.60;;
2522;SDS011;1272;53.332;9.860;2023-03-01T00:34:22;3.80;;;2.90;;
2522;SDS011;1272;53.332;9.860;2023-03-01T00:36:48;2.77;;;2.57;;
2522;SDS011;1272;53.332;9.860;2023-03-01T00:39:14;3.53;;;3.20;;
2522;SDS011;1272;53.332;9.860;2023-03-01T00:41:40;4.33;;;3.73;;
2522;SDS011;1272;53.332;9.860;2023-03-01T00:44:07;2.87;;;2.67;;
2522;SDS011;1272;53.332;9.860;2023-03-01T00:46:32;7.37;;;3.40;;
2522;SDS011;1272;53.332;9.860;2023-03-01T00:48:58;3.20;;;2.90;;
2522;SDS011;1272;53.332;9.860;2023-03-01T00:51:27;3.03;;;2.77;;
2522;SDS011;1272;53.332;9.860;2023-03-01T00:53:54;3.83;;;2.83;;
2522;SDS011;1272;53.332;9.860;2023-03-01T00:56:21;3.83;;;2.40;;
2522;SDS011;1272;53.332;9.860;2023-03-01T00:58:48;3.53;;;2.90;;
2522;SDS011;1272;53.332;9.860;2023-03-01T01:01:21;2.57;;;2.23;;
2522;SDS011;1272;53.332;9.860;2023-03-01T01:03:49;2.27;;;2.17;;
2522;SDS011;1272;53.332;9.860;2023-03-01T01:06:24;3.10;;;2.50;;
2522;SDS011;1272;53.332;9.860;2023-03-01T01:08:51;2.50;;;2.30;;
2522;SDS011;1272;53.332;9.860;2023-03-01T01:11:17;2.13;;;2.03;;
2522;SDS011;1272;53.332;9.860;2023-03-01T01:13:44;2.80;;;2.60;;
2522;SDS011;1272;53.332;9.860;2023-03-01T01:16:12;2.13;;;2.03;;
2522;SDS011;1272;53.332;9.860;2023-03-01T01:18:38;2.80;;;2.60;;
2522;SDS011;1272;53.332;9.860;2023-03-01T01:21:08;2.20;;;2.10;;
2522;SDS011;1272;53.332;9.860;2023-03-01T01:23:36;3.10;;;2.60;;
2522;SDS011;1272;53.332;9.860;2023-03-01T01:26:07;2.67;;;2.50;;
2522;SDS011;1272;53.332;9.860;2023-03-01T01:28:35;2.90;;;2.73;;
2522;SDS011;1272;53.332;9.860;2023-03-01T01:31:01;3.07;;;2.37;;
2522;SDS011;1272;53.332;9.860;2023-03-01T01:33:27;2.93;;;2.60;;
2522;SDS011;1272;53.332;9.860;2023-03-01T01:35:53;3.43;;;3.17;;
2522;SDS011;1272;53.332;9.860;2023-03-01T01:38:19;2.70;;;2.20;;
2522;SDS011;1272;53.332;9.860;2023-03-01T01:40:46;2.57;;;2.43;;
2522;SDS011;1272;53.332;9.860;2023-03-01T01:45:49;3.87;;;3.50;;
2522;SDS011;1272;53.332;9.860;2023-03-01T01:48:17;3.97;;;3.37;;
2522;SDS011;1272;53.332;9.860;2023-03-01T01:50:46;3.13;;;2.93;;
2522;SDS011;1272;53.332;9.860;2023-03-01T01:53:24;3.23;;;3.00;;
2522;SDS011;1272;53.332;9.860;2023-03-01T01:55:53;3.70;;;2.93;;
2522;SDS011;1272;53.332;9.860;2023-03-01T01:58:22;4.40;;;3.07;;
2522;SDS011;1272;53.332;9.860;2023-03-01T02:00:51;2.93;;;2.73;;
2522;SDS011;1272;53.332;9.860;2023-03-01T02:03:19;3.07;;;2.77;;
2522;SDS011;1272;53.332;9.860;2023-03-01T02:08:29;6.07;;;3.20;;
2522;SDS011;1272;53.332;9.860;2023-03-01T02:10:58;2.30;;;2.20;;
2522;SDS011;1272;53.332;9.860;2023-03-01T02:13:25;5.47;;;3.53;;
2522;SDS011;1272;53.332;9.860;2023-03-01T02:15:51;2.63;;;2.43;;
2522;SDS011;1272;53.332;9.860;2023-03-01T02:18:18;3.70;;;2.87;;
2522;SDS011;1272;53.332;9.860;2023-03-01T02:23:31;3.03;;;2.83;;
2522;SDS011;1272;53.332;9.860;2023-03-01T02:30:58;3.63;;;3.03;;
2522;SDS011;1272;53.332;9.860;2023-03-01T02:33:42;2.60;;;2.40;;
2522;SDS011;1272;53.332;9.860;2023-03-01T02:36:14;3.20;;;2.90;;
2522;SDS011;1272;53.332;9.860;2023-03-01T02:38:43;2.90;;;2.70;;
2522;SDS011;1272;53.332;9.860;2023-03-01T02:41:10;3.03;;;2.73;;
2522;SDS011;1272;53.332;9.860;2023-03-01T02:43:38;2.93;;;2.63;;
2522;SDS011;1272;53.332;9.860;2023-03-01T02:46:08;4.33;;;2.93;;
2522;SDS011;1272;53.332;9.860;2023-03-01T02:48:46;2.60;;;2.40;;
2522;SDS011;1272;53.332;9.860;2023-03-01T02:51:18;3.87;;;2.70;;
2522;SDS011;1272;53.332;9.860;2023-03-01T02:56:24;2.10;;;2.00;;
2522;SDS011;1272;53.332;9.860;2023-03-01T02:58:51;2.30;;;2.20;;
2522;SDS011;1272;53.332;9.860;2023-03-01T03:01:18;2.87;;;1.90;;
2522;SDS011;1272;53.332;9.860;2023-03-01T03:03:44;2.17;;;1.97;;
2522;SDS011;1272;53.332;9.860;2023-03-01T03:06:10;2.47;;;2.33;;
2522;SDS011;1272;53.332;9.860;2023-03-01T03:08:36;2.10;;;2.00;;
2522;SDS011;1272;53.332;9.860;2023-03-01T03:11:02;1.93;;;1.83;;
2522;SDS011;1272;53.332;9.860;2023-03-01T03:13:27;3.13;;;1.73;;
2522;SDS011;1272;53.332;9.860;2023-03-01T03:15:56;1.90;;;1.80;;
2522;SDS011;1272;53.332;9.860;2023-03-01T03:18:22;2.50;;;2.30;;
2522;SDS011;1272;53.332;9.860;2023-03-01T03:20:50;2.13;;;1.80;;
2522;SDS011;1272;53.332;9.860;2023-03-01T03:23:17;1.97;;;1.87;;
2522;SDS011;1272;53.332;9.860;2023-03-01T03:25:44;2.50;;;2.27;;
2522;SDS011;1272;53.332;9.860;2023-03-01T03:28:12;3.07;;;2.60;;
2522;SDS011;1272;53.332;9.860;2023-03-01T03:30:39;1.80;;;1.70;;
2522;SDS011;1272;53.332;9.860;2023-03-01T03:33:06;2.10;;;1.93;;
2522;SDS011;1272;53.332;9.860;2023-03-01T03:35:37;2.33;;;2.00;;
2522;SDS011;1272;53.332;9.860;2023-03-01T03:38:05;2.40;;;2.20;;
2522;SDS011;1272;53.332;9.860;2023-03-01T03:40:40;3.80;;;1.70;;
2522;SDS011;1272;53.332;9.860;2023-03-01T03:43:18;3.63;;;2.07;;
2522;SDS011;1272;53.332;9.860;2023-03-01T03:45:45;2.40;;;2.10;;
2522;SDS011;1272;53.332;9.860;2023-03-01T03:48:11;2.53;;;2.33;;
2522;SDS011;1272;53.332;9.860;2023-03-01T03:50:38;2.43;;;2.33;;
2522;SDS011;1272;53.332;9.860;2023-03-01T03:53:05;3.77;;;2.73;;
2522;SDS011;1272;53.332;9.860;2023-03-01T03:55:33;3.63;;;2.07;;
2522;SDS011;1272;53.332;9.860;2023-03-01T03:57:59;1.97;;;1.87;;
2522;SDS011;1272;53.332;9.860;2023-03-01T04:00:39;2.43;;;2.23;;
2522;SDS011;1272;53.332;9.860;2023-03-01T04:03:07;1.80;;;1.70;;
2522;SDS011;1272;53.332;9.860;2023-03-01T04:05:34;3.07;;;2.87;;
2522;SDS011;1272;53.332;9.860;2023-03-01T04:08:00;4.00;;;2.43;;
2522;SDS011;1272;53.332;9.860;2023-03-01T04:10:27;3.20;;;2.30;;
2522;SDS011;1272;53.332;9.860;2023-03-01T04:12:57;2.57;;;2.37;;
2522;SDS011;1272;53.332;9.860;2023-03-01T04:15:23;2.23;;;2.13;;
2522;SDS011;1272;53.332;9.860;2023-03-01T04:17:51;2.33;;;1.80;;
2522;SDS011;1272;53.332;9.860;2023-03-01T04:20:18;3.20;;;2.00;;
2522;SDS011;1272;53.332;9.860;2023-03-01T04:22:50;2.63;;;2.43;;
2522;SDS011;1272;53.332;9.860;2023-03-01T04:25:17;6.30;;;2.57;;
2522;SDS011;1272;53.332;9.860;2023-03-01T04:27:42;3.37;;;2.50;;
2522;SDS011;1272;53.332;9.860;2023-03-01T04:30:08;2.80;;;2.53;;
2522;SDS011;1272;53.332;9.860;2023-03-01T04:32:35;2.10;;;2.00;;
2522;SDS011;1272;53.332;9.860;2023-03-01T04:35:00;2.67;;;2.47;;
2522;SDS011;1272;53.332;9.860;2023-03-01T04:37:26;3.00;;;2.40;;
2522;SDS011;1272;53.332;9.860;2023-03-01T04:39:52;4.10;;;2.53;;
2522;SDS011;1272;53.332;9.860;2023-03-01T04:42:18;2.77;;;2.57;;
2522;SDS011;1272;53.332;9.860;2023-03-01T04:44:43;2.00;;;1.87;;
2522;SDS011;1272;53.332;9.860;2023-03-01T04:47:10;3.90;;;2.70;;
2522;SDS011;1272;53.332;9.860;2023-03-01T04:49:35;2.83;;;2.63;;
2522;SDS011;1272;53.332;9.860;2023-03-01T04:52:02;2.40;;;2.17;;
2522;SDS011;1272;53.332;9.860;2023-03-01T04:54:29;2.90;;;2.70;;
2522;SDS011;1272;53.332;9.860;2023-03-01T04:56:55;3.07;;;2.87;;
2522;SDS011;1272;53.332;9.860;2023-03-01T04:59:21;3.87;;;2.73;;
2522;SDS011;1272;53.332;9.860;2023-03-01T05:01:48;2.50;;;2.30;;
2522;SDS011;1272;53.332;9.860;2023-03-01T05:04:17;4.00;;;2.60;;
2522;SDS011;1272;53.332;9.860;2023-03-01T05:06:42;2.67;;;2.10;;
2522;SDS011;1272;53.332;9.860;2023-03-01T05:09:08;2.70;;;2.50;;
2522;SDS011;1272;53.332;9.860;2023-03-01T05:11:34;2.57;;;2.37;;
2522;SDS011;1272;53.332;9.860;2023-03-01T05:14:04;3.07;;;2.87;;
2522;SDS011;1272;53.332;9.860;2023-03-01T05:16:31;3.20;;;3.00;;
2522;SDS011;1272;53.332;9.860;2023-03-01T05:18:58;2.40;;;2.07;;
2522;SDS011;1272;53.332;9.860;2023-03-01T05:21:24;2.70;;;2.30;;
2522;SDS011;1272;53.332;9.860;2023-03-01T05:23:51;2.63;;;2.43;;
2522;SDS011;1272;53.332;9.860;2023-03-01T05:26:17;5.33;;;2.83;;
2522;SDS011;1272;53.332;9.860;2023-03-01T05:28:44;2.60;;;2.40;;
2522;SDS011;1272;53.332;9.860;2023-03-01T05:31:10;4.30;;;2.70;;
2522;SDS011;1272;53.332;9.860;2023-03-01T05:33:39;3.00;;;2.80;;
2522;SDS011;1272;53.332;9.860;2023-03-01T05:36:08;2.17;;;2.07;;
2522;SDS011;1272;53.332;9.860;2023-03-01T05:38:35;2.50;;;2.30;;
2522;SDS011;1272;53.332;9.860;2023-03-01T05:41:00;3.63;;;2.30;;
2522;SDS011;1272;53.332;9.860;2023-03-01T05:43:29;3.47;;;2.43;;
2522;SDS011;1272;53.332;9.860;2023-03-01T05:45:57;2.60;;;2.20;;
2522;SDS011;1272;53.332;9.860;2023-03-01T05:48:23;2.97;;;2.30;;
2522;SDS011;1272;53.332;9.860;2023-03-01T05:50:49;3.03;;;2.77;;
2522;SDS011;1272;53.332;9.860;2023-03-01T05:53:16;2.77;;;2.57;;
2522;SDS011;1272;53.332;9.860;2023-03-01T05:55:44;2.70;;;2.50;;
2522;SDS011;1272;53.332;9.860;2023-03-01T05:58:16;3.23;;;2.23;;
2522;SDS011;1272;53.332;9.860;2023-03-01T06:00:44;2.73;;;2.50;;
2522;SDS011;1272;53.332;9.860;2023-03-01T06:03:12;2.77;;;2.67;;
2522;SDS011;1272;53.332;9.860;2023-03-01T06:05:39;2.80;;;2.30;;
2522;SDS011;1272;53.332;9.860;2023-03-01T06:08:05;4.00;;;2.33;;
2522;SDS011;1272;53.332;9.860;2023-03-01T06:10:31;3.00;;;2.80;;
2522;SDS011;1272;53.332;9.860;2023-03-01T06:12:57;2.70;;;2.50;;
2522;SDS011;1272;53.332;9.860;2023-03-01T06:15:23;3.33;;;3.07;;
2522;SDS011;1272;53.332;9.860;2023-03-01T06:17:49;3.10;;;2.90;;
2522;SDS011;1272;53.332;9.860;2023-03-01T06:20:16;2.90;;;2.70;;
2522;SDS011;1272;53.332;9.860;2023-03-01T06:22:44;4.00;;;3.00;;
2522;SDS011;1272;53.332;9.860;2023-03-01T06:25:10;2.87;;;2.63;;
2522;SDS011;1272;53.332;9.860;2023-03-01T06:27:37;4.53;;;3.77;;
2522;SDS011;1272;53.332;9.860;2023-03-01T06:30:03;4.67;;;3.53;;
2522;SDS011;1272;53.332;9.860;2023-03-01T06:32:30;3.40;;;3.10;;
2522;SDS011;1272;53.332;9.860;2023-03-01T06:34:56;3.50;;;3.30;;
2522;SDS011;1272;53.332;9.860;2023-03-01T06:37:23;3.20;;;3.00;;
2522;SDS011;1272;53.332;9.860;2023-03-01T06:39:50;4.97;;;3.50;;
2522;SDS011;1272;53.332;9.860;2023-03-01T06:42:15;4.03;;;3.43;;
2522;SDS011;1272;53.332;9.860;2023-03-01T06:44:41;4.33;;;4.03;;
2522;SDS011;1272;53.332;9.860;2023-03-01T06:47:07;4.60;;;3.70;;
2522;SDS011;1272;53.332;9.860;2023-03-01T06:49:33;3.83;;;3.50;;
2522;SDS011;1272;53.332;9.860;2023-03-01T06:51:58;3.73;;;3.40;;
2522;SDS011;1272;53.332;9.860;2023-03-01T06:54:24;4.63;;;3.70;;
2522;SDS011;1272;53.332;9.860;2023-03-01T06:56:50;3.40;;;3.20;;
2522;SDS011;1272;53.332;9.860;2023-03-01T06:59:16;3.90;;;3.37;;
2522;SDS011;1272;53.332;9.860;2023-03-01T07:01:42;4.67;;;4.27;;
2522;SDS011;1272;53.332;9.860;2023-03-01T07:04:08;8.53;;;5.70;;
2522;SDS011;1272;53.332;9.860;2023-03-01T07:06:34;4.97;;;4.50;;
2522;SDS011;1272;53.332;9.860;2023-03-01T07:09:00;7.33;;;5.20;;
2522;SDS011;1272;53.332;9.860;2023-03-01T07:11:26;6.53;;;5.40;;
2522;SDS011;1272;53.332;9.860;2023-03-01T07:13:52;7.43;;;6.00;;
2522;SDS011;1272;53.332;9.860;2023-03-01T07:16:17;5.87;;;4.97;;
2522;SDS011;1272;53.332;9.860;2023-03-01T07:18:45;5.70;;;5.10;;
2522;SDS011;1272;53.332;9.860;2023-03-01T07:21:12;4.10;;;3.70;;
2522;SDS011;1272;53.332;9.860;2023-03-01T07:23:39;5.30;;;4.03;;
2522;SDS011;1272;53.332;9.860;2023-03-01T07:26:05;5.87;;;5.37;;
2522;SDS011;1272;53.332;9.860;2023-03-01T07:28:31;5.53;;;5.03;;
2522;SDS011;1272;53.332;9.860;2023-03-01T07:31:03;7.20;;;6.30;;
2522;SDS011;1272;53.332;9.860;2023-03-01T07:33:29;5.70;;;5.20;;
2522;SDS011;1272;53.332;9.860;2023-03-01T07:35:56;7.20;;;5.57;;
2522;SDS011;1272;53.332;9.860;2023-03-01T07:38:23;5.40;;;4.90;;
2522;SDS011;1272;53.332;9.860;2023-03-01T07:40:49;6.33;;;5.50;;
2522;SDS011;1272;53.332;9.860;2023-03-01T07:43:14;7.17;;;5.80;;
2522;SDS011;1272;53.332;9.860;2023-03-01T07:45:40;7.17;;;6.00;;
2522;SDS011;1272;53.332;9.860;2023-03-01T07:48:06;7.80;;;6.40;;
2522;SDS011;1272;53.332;9.860;2023-03-01T07:50:31;8.73;;;5.70;;
2522;SDS011;1272;53.332;9.860;2023-03-01T07:52:57;9.73;;;7.10;;
2522;SDS011;1272;53.332;9.860;2023-03-01T07:55:23;8.63;;;6.00;;
2522;SDS011;1272;53.332;9.860;2023-03-01T07:57:48;6.50;;;5.60;;
2522;SDS011;1272;53.332;9.860;2023-03-01T08:00:14;5.77;;;5.17;;
2522;SDS011;1272;53.332;9.860;2023-03-01T08:02:40;7.93;;;5.60;;
2522;SDS011;1272;53.332;9.860;2023-03-01T08:05:07;7.70;;;6.37;;
2522;SDS011;1272;53.332;9.860;2023-03-01T08:07:34;7.47;;;6.67;;
2522;SDS011;1272;53.332;9.860;2023-03-01T08:10:00;6.70;;;6.00;;
2522;SDS011;1272;53.332;9.860;2023-03-01T08:12:25;7.67;;;6.30;;
2522;SDS011;1272;53.332;9.860;2023-03-01T08:14:53;9.03;;;6.90;;
2522;SDS011;1272;53.332;9.860;2023-03-01T08:17:19;7.93;;;5.90;;
2522;SDS011;1272;53.332;9.860;2023-03-01T08:19:44;7.17;;;5.90;;
2522;SDS011;1272;53.332;9.860;2023-03-01T08:22:10;8.13;;;6.00;;
2522;SDS011;1272;53.332;9.860;2023-03-01T08:24:36;9.40;;;6.30;;
2522;SDS011;1272;53.332;9.860;2023-03-01T08:27:02;8.97;;;6.10;;
2522;SDS011;1272;53.332;9.860;2023-03-01T08:29:28;6.00;;;5.47;;
2522;SDS011;1272;53.332;9.860;2023-03-01T08:31:55;5.40;;;5.00;;
2522;SDS011;1272;53.332;9.860;2023-03-01T08:34:21;5.83;;;5.23;;
2522;SDS011;1272;53.332;9.860;2023-03-01T08:36:47;6.37;;;5.77;;
2522;SDS011;1272;53.332;9.860;2023-03-01T08:39:14;7.70;;;5.73;;
2522;SDS011;1272;53.332;9.860;2023-03-01T08:41:41;5.97;;;4.70;;
2522;SDS011;1272;53.332;9.860;2023-03-01T08:44:08;5.60;;;5.10;;
2522;SDS011;1272;53.332;9.860;2023-03-01T08:46:36;6.83;;;5.27;;
2522;SDS011;1272;53.332;9.860;2023-03-01T08:49:18;8.83;;;5.13;;
2522;SDS011;1272;53.332;9.860;2023-03-01T08:51:45;5.00;;;4.50;;
2522;SDS011;1272;53.332;9.860;2023-03-01T08:54:13;6.60;;;6.00;;
2522;SDS011;1272;53.332;9.860;2023-03-01T08:56:44;5.70;;;5.20;;
2522;SDS011;1272;53.332;9.860;2023-03-01T08:59:11;5.10;;;4.60;;
2522;SDS011;1272;53.332;9.860;2023-03-01T09:01:37;5.40;;;4.73;;
2522;SDS011;1272;53.332;9.860;2023-03-01T09:04:03;4.97;;;4.47;;
2522;SDS011;1272;53.332;9.860;2023-03-01T09:06:32;4.60;;;4.30;;
2522;SDS011;1272;53.332;9.860;2023-03-01T09:08:59;5.20;;;4.80;;
2522;SDS011;1272;53.332;9.860;2023-03-01T09:11:25;8.60;;;6.37;;
2522;SDS011;1272;53.332;9.860;2023-03-01T09:13:51;9.47;;;6.67;;
2522;SDS011;1272;53.332;9.860;2023-03-01T09:16:18;9.77;;;7.77;;
2522;SDS011;1272;53.332;9.860;2023-03-01T09:18:48;7.60;;;6.40;;
2522;SDS011;1272;53.332;9.860;2023-03-01T09:21:15;7.07;;;5.80;;
2522;SDS011;1272;53.332;9.860;2023-03-01T09:23:42;9.97;;;4.73;;
2522;SDS011;1272;53.332;9.860;2023-03-01T09:26:14;5.30;;;4.80;;
2522;SDS011;1272;53.332;9.860;2023-03-01T09:28:44;4.80;;;4.33;;
2522;SDS011;1272;53.332;9.860;2023-03-01T09:31:10;6.03;;;5.10;;
2522;SDS011;1272;53.332;9.860;2023-03-01T09:33:40;7.20;;;5.40;;
2522;SDS011;1272;53.332;9.860;2023-03-01T09:36:08;7.03;;;5.47;;
2522;SDS011;1272;53.332;9.860;2023-03-01T09:38:37;5.97;;;4.93;;
2522;SDS011;1272;53.332;9.860;2023-03-01T09:41:08;5.33;;;4.63;;
2522;SDS011;1272;53.332;9.860;2023-03-01T09:43:58;7.77;;;5.33;;
2522;SDS011;1272;53.332;9.860;2023-03-01T09:46:29;5.70;;;5.00;;
2522;SDS011;1272;53.332;9.860;2023-03-01T09:49:04;5.20;;;4.60;;
2522;SDS011;1272;53.332;9.860;2023-03-01T09:51:36;6.20;;;5.13;;
2522;SDS011;1272;53.332;9.860;2023-03-01T09:54:02;9.80;;;5.50;;
2522;SDS011;1272;53.332;9.860;2023-03-01T10:07:00;5.70;;;5.13;;
2522;SDS011;1272;53.332;9.860;2023-03-01T10:09:38;7.63;;;5.30;;
2522;SDS011;1272;53.332;9.860;2023-03-01T10:12:13;7.50;;;5.60;;
2522;SDS011;1272;53.332;9.860;2023-03-01T10:17:46;6.73;;;5.17;;
2522;SDS011;1272;53.332;9.860;2023-03-01T10:20:20;5.90;;;5.00;;
2522;SDS011;1272;53.332;9.860;2023-03-01T10:22:51;5.37;;;4.97;;
2522;SDS011;1272;53.332;9.860;2023-03-01T10:28:25;6.13;;;5.43;;
2522;SDS011;1272;53.332;9.860;2023-03-01T10:31:05;9.53;;;5.43;;
2522;SDS011;1272;53.332;9.860;2023-03-01T10:33:39;7.13;;;6.10;;
2522;SDS011;1272;53.332;9.860;2023-03-01T10:36:06;6.40;;;5.90;;
2522;SDS011;1272;53.332;9.860;2023-03-01T10:38:47;8.63;;;5.90;;
2522;SDS011;1272;53.332;9.860;2023-03-01T10:41:14;7.87;;;7.00;;
2522;SDS011;1272;53.332;9.860;2023-03-01T10:43:50;9.17;;;7.50;;
2522;SDS011;1272;53.332;9.860;2023-03-01T10:46:22;10.00;;;7.30;;
2522;SDS011;1272;53.332;9.860;2023-03-01T10:51:41;10.43;;;8.17;;
2522;SDS011;1272;53.332;9.860;2023-03-01T10:54:22;10.27;;;8.17;;
2522;SDS011;1272;53.332;9.860;2023-03-01T10:56:57;8.20;;;7.30;;
2522;SDS011;1272;53.332;9.860;2023-03-01T10:59:34;9.33;;;7.80;;
2522;SDS011;1272;53.332;9.860;2023-03-01T11:02:20;7.43;;;6.73;;
2522;SDS011;1272;53.332;9.860;2023-03-01T11:05:01;10.93;;;7.67;;
2522;SDS011;1272;53.332;9.860;2023-03-01T11:10:34;11.10;;;8.60;;
2522;SDS011;1272;53.332;9.860;2023-03-01T11:13:17;11.50;;;8.60;;
2522;SDS011;1272;53.332;9.860;2023-03-01T11:16:00;9.30;;;7.90;;
2522;SDS011;1272;53.332;9.860;2023-03-01T11:18:29;9.90;;;8.20;;
2522;SDS011;1272;53.332;9.860;2023-03-01T11:20:56;10.40;;;8.63;;
2522;SDS011;1272;53.332;9.860;2023-03-01T11:23:24;13.57;;;8.87;;
2522;SDS011;1272;53.332;9.860;2023-03-01T11:25:56;8.30;;;7.10;;
2522;SDS011;1272;53.332;9.860;2023-03-01T11:28:28;9.87;;;8.27;;
2522;SDS011;1272;53.332;9.860;2023-03-01T11:38:36;10.23;;;8.10;;
2522;SDS011;1272;53.332;9.860;2023-03-01T11:43:59;11.47;;;8.80;;
2522;SDS011;1272;53.332;9.860;2023-03-01T12:00:36;10.73;;;8.83;;
2522;SDS011;1272;53.332;9.860;2023-03-01T12:07:17;13.57;;;9.80;;
2522;SDS011;1272;53.332;9.860;2023-03-01T12:09:36;14.20;;;9.33;;
2522;SDS011;1272;53.332;9.860;2023-03-01T12:14:51;12.20;;;10.30;;
2522;SDS011;1272;53.332;9.860;2023-03-01T12:17:36;11.20;;;8.90;;
2522;SDS011;1272;53.332;9.860;2023-03-01T12:20:32;13.10;;;10.47;;
2522;SDS011;1272;53.332;9.860;2023-03-01T12:26:24;11.53;;;9.83;;
2522;SDS011;1272;53.332;9.860;2023-03-01T12:31:57;11.03;;;9.30;;
2522;SDS011;1272;53.332;9.860;2023-03-01T12:34:42;13.80;;;9.90;;
2522;SDS011;1272;53.332;9.860;2023-03-01T12:46:26;11.73;;;9.63;;
2522;SDS011;1272;53.332;9.860;2023-03-01T12:51:24;9.87;;;8.70;;
2522;SDS011;1272;53.332;9.860;2023-03-01T12:53:54;11.53;;;9.67;;
2522;SDS011;1272;53.332;9.860;2023-03-01T12:56:27;10.03;;;8.87;;
2522;SDS011;1272;53.332;9.860;2023-03-01T12:59:15;13.53;;;10.07;;
2522;SDS011;1272;53.332;9.860;2023-03-01T13:02:44;9.67;;;8.67;;
2522;SDS011;1272;53.332;9.860;2023-03-01T13:05:00;12.80;;;9.70;;
2522;SDS011;1272;53.332;9.860;2023-03-01T13:10:26;10.43;;;8.80;;
2522;SDS011;1272;53.332;9.860;2023-03-01T13:15:29;12.70;;;9.60;;
2522;SDS011;1272;53.332;9.860;2023-03-01T13:17:58;11.03;;;9.80;;
2522;SDS011;1272;53.332;9.860;2023-03-01T13:23:09;11.30;;;10.13;;
2522;SDS011;1272;53.332;9.860;2023-03-01T13:33:50;13.20;;;10.73;;
2522;SDS011;1272;53.332;9.860;2023-03-01T13:41:56;9.97;;;8.47;;
2522;SDS011;1272;53.332;9.860;2023-03-01T13:49:42;11.60;;;8.60;;
2522;SDS011;1272;53.332;9.860;2023-03-01T13:54:55;10.10;;;9.07;;
2522;SDS011;1272;53.332;9.860;2023-03-01T13:57:32;12.97;;;9.07;;
2522;SDS011;1272;53.332;9.860;2023-03-01T14:00:02;9.20;;;8.30;;
2522;SDS011;1272;53.332;9.860;2023-03-01T14:02:29;8.63;;;7.73;;
2522;SDS011;1272;53.332;9.860;2023-03-01T14:04:56;10.17;;;8.50;;
2522;SDS011;1272;53.332;9.860;2023-03-01T14:07:23;11.07;;;8.70;;
2522;SDS011;1272;53.332;9.860;2023-03-01T14:09:56;13.47;;;9.63;;
2522;SDS011;1272;53.332;9.860;2023-03-01T14:17:49;12.00;;;8.30;;
2522;SDS011;1272;53.332;9.860;2023-03-01T14:22:45;10.90;;;8.53;;
2522;SDS011;1272;53.332;9.860;2023-03-01T14:25:19;11.90;;;8.90;;
2522;SDS011;1272;53.332;9.860;2023-03-01T14:27:51;13.67;;;8.67;;
2522;SDS011;1272;53.332;9.860;2023-03-01T14:30:26;9.33;;;7.47;;
2522;SDS011;1272;53.332;9.860;2023-03-01T14:33:00;11.23;;;6.93;;
2522;SDS011;1272;53.332;9.860;2023-03-01T14:35:32;11.30;;;8.47;;
2522;SDS011;1272;53.332;9.860;2023-03-01T14:38:00;9.87;;;7.80;;
2522;SDS011;1272;53.332;9.860;2023-03-01T14:40:27;10.73;;;7.60;;
2522;SDS011;1272;53.332;9.860;2023-03-01T14:42:55;9.40;;;7.87;;
2522;SDS011;1272;53.332;9.860;2023-03-01T14:45:25;9.47;;;7.07;;
2522;SDS011;1272;53.332;9.860;2023-03-01T14:47:58;14.03;;;7.87;;
2522;SDS011;1272;53.332;9.860;2023-03-01T14:50:28;10.40;;;9.33;;
2522;SDS011;1272;53.332;9.860;2023-03-01T14:52:59;12.83;;;7.67;;
2522;SDS011;1272;53.332;9.860;2023-03-01T14:55:31;8.03;;;7.17;;
2522;SDS011;1272;53.332;9.860;2023-03-01T14:58:04;7.80;;;7.10;;
2522;SDS011;1272;53.332;9.860;2023-03-01T15:00:31;9.80;;;8.20;;
2522;SDS011;1272;53.332;9.860;2023-03-01T15:03:19;10.07;;;8.20;;
2522;SDS011;1272;53.332;9.860;2023-03-01T15:05:50;8.80;;;7.90;;
2522;SDS011;1272;53.332;9.860;2023-03-01T15:08:18;8.27;;;7.47;;
2522;SDS011;1272;53.332;9.860;2023-03-01T15:11:00;10.90;;;7.80;;
2522;SDS011;1272;53.332;9.860;2023-03-01T15:13:28;9.83;;;7.60;;
2522;SDS011;1272;53.332;9.860;2023-03-01T15:16:05;12.37;;;8.73;;
2522;SDS011;1272;53.332;9.860;2023-03-01T15:18:35;12.30;;;8.10;;
2522;SDS011;1272;53.332;9.860;2023-03-01T15:21:06;14.90;;;8.30;;
2522;SDS011;1272;53.332;9.860;2023-03-01T15:23:40;10.97;;;8.20;;
2522;SDS011;1272;53.332;9.860;2023-03-01T15:26:16;8.90;;;8.00;;
2522;SDS011;1272;53.332;9.860;2023-03-01T15:28:52;12.17;;;8.40;;
2522;SDS011;1272;53.332;9.860;2023-03-01T15:31:27;11.03;;;8.60;;
2522;SDS011;1272;53.332;9.860;2023-03-01T15:34:11;12.87;;;9.70;;
2522;SDS011;1272;53.332;9.860;2023-03-01T15:36:47;11.30;;;8.57;;
2522;SDS011;1272;53.332;9.860;2023-03-01T15:42:13;10.87;;;8.37;;
2522;SDS011;1272;53.332;9.860;2023-03-01T15:47:34;13.73;;;9.47;;
2522;SDS011;1272;53.332;9.860;2023-03-01T15:50:03;14.80;;;8.60;;
2522;SDS011;1272;53.332;9.860;2023-03-01T15:52:34;10.33;;;8.33;;
2522;SDS011;1272;53.332;9.860;2023-03-01T15:55:26;11.80;;;8.80;;
2522;SDS011;1272;53.332;9.860;2023-03-01T15:58:05;13.00;;;9.67;;
2522;SDS011;1272;53.332;9.860;2023-03-01T16:00:37;11.40;;;8.27;;
2522;SDS011;1272;53.332;9.860;2023-03-01T16:03:04;13.10;;;8.13;;
2522;SDS011;1272;53.332;9.860;2023-03-01T16:05:31;11.87;;;9.23;;
2522;SDS011;1272;53.332;9.860;2023-03-01T16:07:59;11.93;;;8.70;;
2522;SDS011;1272;53.332;9.860;2023-03-01T16:10:25;11.70;;;8.80;;
2522;SDS011;1272;53.332;9.860;2023-03-01T16:12:52;12.43;;;9.67;;
2522;SDS011;1272;53.332;9.860;2023-03-01T16:15:21;12.73;;;9.20;;
2522;SDS011;1272;53.332;9.860;2023-03-01T16:17:49;15.10;;;8.60;;
2522;SDS011;1272;53.332;9.860;2023-03-01T16:20:15;13.00;;;8.90;;
2522;SDS011;1272;53.332;9.860;2023-03-01T16:22:42;9.67;;;8.60;;
2522;SDS011;1272;53.332;9.860;2023-03-01T16:25:09;17.73;;;10.90;;
2522;SDS011;1272;53.332;9.860;2023-03-01T16:27:36;17.40;;;11.80;;
2522;SDS011;1272;53.332;9.860;2023-03-01T16:30:02;16.23;;;10.60;;
2522;SDS011;1272;53.332;9.860;2023-03-01T16:32:29;18.87;;;12.10;;
2522;SDS011;1272;53.332;9.860;2023-03-01T16:34:54;17.53;;;11.90;;
2522;SDS011;1272;53.332;9.860;2023-03-01T16:37:20;19.57;;;12.10;;
2522;SDS011;1272;53.332;9.860;2023-03-01T16:39:46;19.60;;;12.20;;
2522;SDS011;1272;53.332;9.860;2023-03-01T16:42:15;23.23;;;13.10;;
2522;SDS011;1272;53.332;9.860;2023-03-01T16:44:41;18.70;;;12.17;;
2522;SDS011;1272;53.332;9.860;2023-03-01T16:47:07;19.80;;;12.57;;
2522;SDS011;1272;53.332;9.860;2023-03-01T16:49:33;16.50;;;12.00;;
2522;SDS011;1272;53.332;9.860;2023-03-01T16:51:58;15.67;;;10.37;;
2522;SDS011;1272;53.332;9.860;2023-03-01T16:54:24;19.00;;;12.17;;
2522;SDS011;1272;53.332;9.860;2023-03-01T16:56:50;16.23;;;11.00;;
2522;SDS011;1272;53.332;9.860;2023-03-01T16:59:15;20.90;;;12.97;;
2522;SDS011;1272;53.332;9.860;2023-03-01T17:01:43;19.23;;;11.93;;
2522;SDS011;1272;53.332;9.860;2023-03-01T17:04:10;18.50;;;12.13;;
2522;SDS011;1272;53.332;9.860;2023-03-01T17:06:37;21.37;;;13.33;;
2522;SDS011;1272;53.332;9.860;2023-03-01T17:09:02;18.17;;;12.43;;
2522;SDS011;1272;53.332;9.860;2023-03-01T17:11:28;20.53;;;13.60;;
2522;SDS011;1272;53.332;9.860;2023-03-01T17:13:54;19.97;;;12.03;;
2522;SDS011;1272;53.332;9.860;2023-03-01T17:16:20;20.50;;;11.93;;
2522;SDS011;1272;53.332;9.860;2023-03-01T17:18:46;18.73;;;13.00;;
2522;SDS011;1272;53.332;9.860;2023-03-01T17:21:12;20.00;;;13.83;;
2522;SDS011;1272;53.332;9.860;2023-03-01T17:23:40;18.73;;;11.60;;
2522;SDS011;1272;53.332;9.860;2023-03-01T17:26:07;16.67;;;11.80;;
2522;SDS011;1272;53.332;9.860;2023-03-01T17:28:33;22.30;;;13.10;;
2522;SDS011;1272;53.332;9.860;2023-03-01T17:31:01;17.50;;;11.47;;
2522;SDS011;1272;53.332;9.860;2023-03-01T17:33:27;18.53;;;12.50;;
2522;SDS011;1272;53.332;9.860;2023-03-01T17:35:56;18.77;;;11.90;;